createdAt,value
2022-11-06T00:00:18.777Z,70.65
2022-11-06T00:05:38.956Z,70.82
2022-11-06T00:10:40.490Z,70.75
2022-11-06T00:15:41.813Z,71.03
2022-11-06T00:20:43.275Z,70.84
2022-11-06T00:25:44.676Z,70.94
2022-11-06T00:30:46.775Z,71.36
2022-11-06T00:35:48.128Z,71.17
2022-11-06T00:40:49.480Z,71.03
2022-11-06T00:45:50.810Z,71.16
2022-11-06T00:50:52.170Z,71.35
2022-11-06T00:55:53.670Z,71.13
2022-11-06T01:00:55.002Z,71.08
2022-11-06T01:06:03.044Z,70.98
2022-11-06T01:11:22.892Z,70.97
2022-11-06T01:16:25.315Z,70.71
2022-11-06T01:21:33.075Z,71.08
2022-11-06T01:26:39.284Z,71.11
2022-11-06T01:31:44.558Z,70.97
2022-11-06T01:36:46.669Z,71.42
2022-11-06T01:41:50.764Z,71.13
2022-11-06T01:46:52.324Z,71.21
2022-11-06T01:51:57.793Z,71.29
2022-11-06T01:57:01.124Z,70.97
2022-11-06T02:02:02.879Z,70.79
2022-11-06T02:07:05.821Z,71.19
2022-11-06T02:12:32.958Z,71.61
2022-11-06T02:17:46.544Z,71.41
2022-11-06T02:23:30.837Z,71.77
2022-11-06T02:28:39.080Z,71.70
2022-11-06T02:33:48.957Z,71.91
2022-11-06T02:38:57.257Z,71.89
2022-11-06T02:44:00.037Z,71.47
2022-11-06T02:49:07.660Z,71.57
2022-11-06T02:54:11.521Z,71.55
2022-11-06T02:59:29.208Z,71.90
2022-11-06T03:04:43.821Z,72.18
2022-11-06T03:09:45.625Z,72.12
2022-11-06T03:14:57.007Z,72.15
2022-11-06T03:20:23.398Z,72.14
2022-11-06T03:25:43.350Z,72.03
2022-11-06T03:30:50.712Z,72.37
2022-11-06T03:35:58.926Z,71.88
2022-11-06T03:41:06.920Z,71.45
2022-11-06T03:46:15.505Z,71.88
2022-11-06T03:51:25.282Z,71.86
2022-11-06T03:56:59.843Z,71.61
2022-11-06T04:02:02.945Z,71.75
2022-11-06T04:07:13.104Z,71.49
2022-11-06T04:12:38.861Z,71.58
2022-11-06T04:17:41.744Z,72.06
2022-11-06T04:22:59.751Z,72.03
2022-11-06T04:28:48.887Z,71.92
2022-11-06T04:33:59.034Z,71.90
2022-11-06T04:39:12.554Z,72.15
2022-11-06T04:44:23.878Z,72.03
2022-11-06T04:49:29.042Z,71.50
2022-11-06T04:54:32.110Z,72.14
2022-11-06T04:59:36.545Z,72.21
2022-11-06T05:04:37.901Z,72.52
2022-11-06T05:09:39.259Z,72.59
2022-11-06T05:14:40.628Z,72.63
2022-11-06T05:19:41.964Z,71.81
2022-11-06T05:24:43.331Z,72.26
2022-11-06T05:29:45.181Z,71.97
2022-11-06T05:34:46.967Z,71.57
2022-11-06T05:39:48.324Z,72.25
2022-11-06T05:44:49.732Z,71.80
2022-11-06T05:49:51.076Z,71.81
2022-11-06T05:54:52.550Z,71.52
2022-11-06T05:59:53.907Z,71.59
2022-11-06T06:04:55.250Z,71.36
2022-11-06T06:09:56.732Z,72.29
2022-11-06T06:14:58.086Z,72.05
2022-11-06T06:19:59.527Z,72.62
2022-11-06T06:25:01.598Z,71.92
2022-11-06T06:30:03.345Z,71.26
2022-11-06T06:35:05.296Z,71.37
2022-11-06T06:40:07.130Z,72.11
2022-11-06T06:45:08.834Z,71.95
2022-11-06T06:50:10.224Z,71.63
2022-11-06T06:55:11.597Z,72.33
2022-11-06T07:00:13.256Z,72.17
2022-11-06T07:05:14.630Z,71.98
2022-11-06T07:10:16.688Z,71.75
2022-11-06T07:15:18.095Z,72.29
2022-11-06T07:20:19.512Z,71.90
2022-11-06T07:25:20.878Z,71.86
2022-11-06T07:30:22.238Z,72.02
2022-11-06T07:35:23.596Z,72.25
2022-11-06T07:40:25.032Z,71.66
2022-11-06T07:45:26.377Z,71.51
2022-11-06T07:50:27.880Z,72.14
2022-11-06T07:55:29.736Z,71.63
2022-11-06T08:00:31.052Z,72.02
2022-11-06T08:05:32.396Z,71.67
2022-11-06T08:10:33.852Z,71.68
2022-11-06T08:15:38.069Z,71.99
2022-11-06T08:20:40.248Z,72.00
2022-11-06T08:25:41.661Z,72.23
2022-11-06T08:30:43.020Z,72.41
2022-11-06T08:35:44.574Z,72.19
2022-11-06T08:40:50.723Z,71.95
2022-11-06T08:45:54.772Z,71.63
2022-11-06T08:50:56.334Z,71.25
2022-11-06T08:55:57.721Z,71.45
2022-11-06T09:00:59.156Z,71.24
2022-11-06T09:06:00.781Z,71.04
2022-11-06T09:11:07.312Z,70.65
2022-11-06T09:16:14.279Z,70.40
2022-11-06T09:21:17.088Z,70.27
2022-11-06T09:26:18.606Z,70.18
2022-11-06T09:31:19.978Z,70.13
2022-11-06T09:36:21.409Z,69.81
2022-11-06T09:41:50.473Z,69.73
2022-11-06T09:46:53.686Z,69.32
2022-11-06T09:52:38.441Z,68.65
2022-11-06T09:57:55.948Z,68.61
2022-11-06T10:03:05.483Z,68.27
2022-11-06T10:08:15.522Z,67.58
2022-11-06T10:13:38.073Z,67.32
2022-11-06T10:18:56.558Z,66.74
2022-11-06T10:24:02.329Z,66.72
2022-11-06T10:29:18.676Z,66.53
2022-11-06T10:34:25.157Z,65.99
2022-11-06T10:39:32.637Z,65.86
2022-11-06T10:44:38.026Z,66.43
2022-11-06T10:49:48.083Z,65.64
2022-11-06T10:55:05.349Z,64.94
2022-11-06T11:00:12.500Z,64.31
2022-11-06T11:05:17.050Z,63.95
2022-11-06T11:10:24.436Z,63.68
2022-11-06T11:15:26.966Z,64.40
2022-11-06T11:20:31.168Z,63.62
2022-11-06T11:25:32.671Z,63.09
2022-11-06T11:30:34.091Z,62.92
2022-11-06T11:35:38.350Z,62.88
2022-11-06T11:40:40.236Z,62.13
2022-11-06T11:45:42.668Z,62.16
2022-11-06T11:50:44.164Z,61.77
2022-11-06T11:55:49.172Z,61.60
2022-11-06T12:00:54.568Z,61.10
2022-11-06T12:06:12.961Z,60.61
2022-11-06T12:11:19.714Z,60.66
2022-11-06T12:16:21.308Z,60.20
2022-11-06T12:21:48.840Z,59.98
2022-11-06T12:26:59.015Z,59.43
2022-11-06T12:32:21.840Z,59.04
2022-11-06T12:37:37.110Z,59.18
2022-11-06T12:42:41.450Z,58.54
2022-11-06T12:47:57.485Z,57.85
2022-11-06T12:53:03.441Z,58.13
2022-11-06T12:58:29.022Z,57.49
2022-11-06T13:03:59.691Z,56.92
2022-11-06T13:09:06.234Z,56.36
2022-11-06T13:14:29.673Z,55.84
2022-11-06T13:19:47.589Z,55.56
2022-11-06T13:25:20.717Z,55.30
2022-11-06T13:30:24.485Z,55.15
2022-11-06T13:35:27.060Z,54.88
2022-11-06T13:40:37.115Z,54.66
2022-11-06T13:46:07.563Z,54.55
2022-11-06T13:51:42.016Z,54.47
2022-11-06T13:57:24.546Z,54.71
2022-11-06T14:02:37.044Z,54.69
2022-11-06T14:07:41.285Z,55.00
2022-11-06T14:12:46.887Z,55.20
2022-11-06T14:18:01.620Z,55.37
2022-11-06T14:23:29.074Z,55.54
2022-11-06T14:28:33.072Z,55.91
2022-11-06T14:33:58.361Z,55.88
2022-11-06T14:38:59.888Z,56.20
2022-11-06T14:44:18.855Z,56.53
2022-11-06T14:49:26.541Z,56.55
2022-11-06T14:54:28.708Z,56.81
2022-11-06T14:59:34.956Z,56.83
2022-11-06T15:04:44.198Z,57.06
2022-11-06T15:09:47.516Z,56.93
2022-11-06T15:14:48.854Z,57.16
2022-11-06T15:20:06.069Z,57.43
2022-11-06T15:25:10.390Z,57.45
2022-11-06T15:30:17.664Z,57.35
2022-11-06T15:35:23.611Z,57.29
2022-11-06T15:40:29.206Z,57.57
2022-11-06T15:45:30.604Z,58.09
2022-11-06T15:50:34.156Z,57.79
2022-11-06T15:55:38.361Z,58.00
2022-11-06T16:00:41.448Z,58.12
2022-11-06T16:05:43.116Z,58.21
2022-11-06T16:10:48.161Z,58.52
2022-11-06T16:15:58.900Z,58.71
2022-11-06T16:21:08.745Z,59.30
2022-11-06T16:26:22.840Z,59.09
2022-11-06T16:31:28.129Z,60.13
2022-11-06T16:36:31.656Z,60.03
2022-11-06T16:41:59.661Z,60.26
2022-11-06T16:47:09.889Z,60.41
2022-11-06T16:52:32.646Z,60.22
2022-11-06T16:57:36.926Z,60.84
2022-11-06T17:02:38.739Z,61.22
2022-11-06T17:07:41.257Z,61.15
2022-11-06T17:12:42.646Z,60.89
2022-11-06T17:17:43.973Z,61.56
2022-11-06T17:22:46.075Z,61.70
2022-11-06T17:27:47.418Z,61.72
2022-11-06T17:32:48.759Z,61.57
2022-11-06T17:37:50.130Z,61.34
2022-11-06T17:42:51.533Z,62.17
2022-11-06T17:47:52.896Z,63.36
2022-11-06T17:52:54.369Z,64.34
2022-11-06T17:57:55.697Z,65.63
2022-11-06T18:03:02.309Z,65.84
2022-11-06T18:08:04.002Z,66.48
2022-11-06T18:13:06.969Z,66.81
2022-11-06T18:18:08.326Z,66.97
2022-11-06T18:23:09.657Z,66.95
2022-11-06T18:28:11.027Z,67.42
2022-11-06T18:33:12.382Z,66.92
2022-11-06T18:38:14.961Z,67.10
2022-11-06T18:43:16.515Z,67.50
2022-11-06T18:48:21.248Z,67.33
2022-11-06T18:53:23.121Z,67.65
2022-11-06T18:58:24.576Z,67.66
2022-11-06T19:03:25.939Z,67.52
2022-11-06T19:08:27.283Z,67.26
2022-11-06T19:13:28.686Z,67.31
2022-11-06T19:18:31.261Z,67.97
2022-11-06T19:23:32.669Z,67.60
2022-11-06T19:28:36.003Z,67.46
2022-11-06T19:33:37.556Z,67.83
2022-11-06T19:38:39.249Z,67.88
2022-11-06T19:43:40.677Z,68.32
2022-11-06T19:48:42.096Z,67.93
2022-11-06T19:53:43.607Z,68.29
2022-11-06T19:58:45.056Z,68.50
2022-11-06T20:03:46.876Z,67.78
2022-11-06T20:08:50.158Z,68.09
2022-11-06T20:13:51.609Z,67.65
2022-11-06T20:18:57.860Z,67.26
2022-11-06T20:23:59.298Z,67.45
2022-11-06T20:29:00.750Z,66.69
2022-11-06T20:34:02.179Z,66.63
2022-11-06T20:39:03.918Z,66.32
2022-11-06T20:44:05.377Z,66.35
2022-11-06T20:49:06.898Z,66.16
2022-11-06T20:54:08.403Z,65.41
2022-11-06T20:59:10.236Z,65.45
2022-11-06T21:04:12.063Z,64.61
2022-11-06T21:09:13.428Z,64.61
2022-11-06T21:14:14.873Z,64.26
2022-11-06T21:19:16.263Z,63.89
2022-11-06T21:24:17.738Z,63.85
2022-11-06T21:29:19.068Z,63.65
2022-11-06T21:34:20.487Z,62.94
2022-11-06T21:39:22.242Z,63.18
2022-11-06T21:44:23.770Z,63.13
2022-11-06T21:49:25.147Z,62.96
2022-11-06T21:54:45.290Z,63.07
2022-11-06T21:59:46.633Z,62.67
2022-11-06T22:04:47.966Z,62.91
2022-11-06T22:09:49.316Z,62.82
2022-11-06T22:14:50.654Z,62.79
2022-11-06T22:19:51.993Z,62.72
2022-11-06T22:24:53.398Z,62.83
2022-11-06T22:29:54.753Z,62.85
2022-11-06T22:34:56.105Z,62.47
2022-11-06T22:39:57.437Z,63.02
2022-11-06T22:44:58.766Z,62.71
2022-11-06T22:50:00.497Z,62.82
2022-11-06T22:55:01.828Z,62.60
2022-11-06T23:00:05.280Z,62.16
2022-11-06T23:05:07.311Z,62.88
2022-11-06T23:10:09.382Z,62.80
2022-11-06T23:15:10.823Z,62.85
2022-11-06T23:20:12.154Z,62.64
2022-11-06T23:25:14.722Z,63.13
2022-11-06T23:30:16.081Z,63.13
2022-11-06T23:35:19.482Z,62.75
2022-11-06T23:40:22.496Z,63.15
2022-11-06T23:45:42.288Z,63.65
2022-11-06T23:50:47.034Z,63.27
2022-11-06T23:55:48.551Z,63.53
